Airfield :
LOGIN :

Register | Disclaimer

   EN    FR    IT 

 










Legend :    VFR   Marginal VFR   IFR   Intensive IFR   Very Intensive IFR
Visi :
Ceiling :
>= 8 km
>= 3000ft
5 to 8 km
1000 to 3000 ft
1500m to 5 km
500 to 1000 ft
800 to 1500m
200 to 500 ft
< 800m
< 200 ft
Symbols :   Thunderstorms  Fog  Heavy snow  Heavy precipitations  Wind > 20 kt
SIGMETs :     Misc.  Thunderstorms  Icing  Turbulence  Mountain Waves  Volcanic Ashes






- Airport Elevation : 141 ft
- IATA code : SKS


EKSP - Srydstrup Vojens

CURRENT METAR :
  • 280850Z 28014KT 9999 FEW030 06/03 Q1007 R28R/290295 TEMPO 5000 SHRASN FEW020CB

EXPIRED METARs :
  • 280820Z 27011KT 9999 FEW030 05/02 Q1007 R28R/290295 TEMPO 5000 SHRASN FEW020CB
  • 280750Z 26009KT 9999 FEW030 03/02 Q1006 R28R/790193 TEMPO 5000 SHRASN FEW020CB
  • 280720Z 28013G25KT 9999 VCSH FEW020CB FEW050 02/01 Q1006 R28R/790193 TEMPO 5000 SHRASN FEW020CB
  • 280650Z 26008KT 9999 VCSH FEW020TCU 01/M00 Q1005 TEMPO 5000 SHRASN FEW020CB
  • 280620Z 26011KT 9999 FEW030 01/00 Q1005 TEMPO 5000 SHRASN FEW020CB

TAF TAF EKSP
Valid from the 28 at 09:00 until the 29 at 09:00 UTC


280807Z 2809/2909 27012KT 9999 SCT020 BKN040
TEMPO 2809/2810 5000 -SHRASN SCT012CB
TEMPO 2810/2814 27017G27KT
BECMG 2815/2818 20008KT
BECMG 2822/2824 16012KT 5000 -RASN SCT005 BKN012
TEMPO 2900/2906 15012G22KT 1800 SNRA BKN003
BECMG 2906/2908 20015KT 1200 RADZ BR BKN002



MET'MAP, your aeronautical weather chart ! - Copyright ORBIFLY December 2007 - Disclaimer

ORBIFLY MET'MAP TEAM :

Programming & Development : Alexandra Zaïnal
Concept & original design : Baudouin d'Aumeries
Assistance for programming : Marc-Olivier Méhu
Technical & hardware support : Manuel Goepfert

Contact : metmap@orbifly.com




SOURCES & CREDITS :

   NOAA